Time;durP1;ratioP1;P1;durP2;ratioP2;P2;SDS_P1;SDS_P2;PMS_P1;PMS_P2;Temp;Humidity;BMP_temperature;BMP_pressure;BME280_temperature;BME280_humidity;BME280_pressure;Samples;Min_cycle;Max_cycle;Signal;HPM_P1;HPM_P2
2023/05/09 00:01:48;;;;;;;20.90;18.70;;;;;;;16.08;98.80;98460.47;4168356;28;20644;-82
2023/05/09 00:03:53;;;;;;;23.03;20.07;;;;;;;16.05;97.37;98460.72;4167968;28;21379;-83
2023/05/09 00:05:56;;;;;;;21.60;19.30;;;;;;;16.00;97.26;98452.41;4171106;28;20766;-82
2023/05/09 00:07:59;;;;;;;22.20;20.00;;;;;;;15.93;98.32;98458.31;4165808;28;20629;-83
2023/05/09 00:10:03;;;;;;;23.40;20.00;;;;;;;15.85;99.09;98443.16;4167769;28;20628;-83
2023/05/09 00:12:06;;;;;;;23.03;20.50;;;;;;;15.81;97.61;98454.88;4153968;28;20637;-83
2023/05/09 00:14:11;;;;;;;21.93;19.60;;;;;;;15.79;97.30;98451.56;4170013;28;20637;-83
2023/05/09 00:16:14;;;;;;;21.57;18.90;;;;;;;15.73;97.38;98446.81;4153368;28;20634;-83
2023/05/09 00:18:17;;;;;;;20.40;18.27;;;;;;;15.70;97.15;98443.63;4169979;28;20733;-83
2023/05/09 00:20:22;;;;;;;20.97;18.73;;;;;;;15.68;96.83;98442.88;4169780;28;20637;-82
2023/05/09 00:22:25;;;;;;;21.60;18.77;;;;;;;15.66;96.97;98444.81;4153957;28;21603;-83
2023/05/09 00:24:28;;;;;;;22.73;20.23;;;;;;;15.64;97.48;98446.75;4170802;28;20697;-83
2023/05/09 00:26:31;;;;;;;23.37;20.53;;;;;;;15.62;98.52;98438.13;4155538;28;20642;-83
2023/05/09 00:28:35;;;;;;;22.80;19.70;;;;;;;15.59;97.36;98441.88;4169974;28;21229;-82
2023/05/09 00:30:38;;;;;;;20.60;18.40;;;;;;;15.55;97.30;98430.91;4168036;28;20648;-83
2023/05/09 00:32:42;;;;;;;24.40;19.50;;;;;;;15.51;97.08;98435.56;4156855;28;20644;-83
2023/05/09 00:34:45;;;;;;;25.90;20.27;;;;;;;15.49;97.83;98428.78;4166097;28;20716;-83
2023/05/09 00:36:49;;;;;;;21.17;18.97;;;;;;;15.48;97.76;98424.47;4169676;28;20651;-83
2023/05/09 00:38:52;;;;;;;22.17;19.77;;;;;;;15.48;97.66;98421.84;4169661;28;20639;-82
2023/05/09 00:40:56;;;;;;;22.90;20.40;;;;;;;15.46;98.45;98424.59;4153667;28;20636;-83
2023/05/09 00:42:59;;;;;;;21.47;19.37;;;;;;;15.43;99.48;98426.66;4167353;28;20843;-82
2023/05/09 00:45:02;;;;;;;22.60;20.20;;;;;;;15.39;98.31;98417.34;4169345;28;20632;-83
2023/05/09 00:47:06;;;;;;;23.13;20.70;;;;;;;15.38;98.96;98418.28;4169019;28;20636;-82
2023/05/09 00:49:11;;;;;;;23.50;20.80;;;;;;;15.38;98.93;98413.03;4159868;28;20644;-82
2023/05/09 00:51:14;;;;;;;22.20;19.90;;;;;;;15.37;100.00;98406.94;4167143;28;20753;-81
2023/05/09 00:53:19;;;;;;;23.27;20.40;;;;;;;15.36;100.00;98409.72;4152895;28;21290;-83
2023/05/09 00:55:22;;;;;;;25.37;20.80;;;;;;;15.29;99.24;98411.16;4156209;28;21216;-83
2023/05/09 00:57:25;;;;;;;23.70;20.17;;;;;;;15.28;97.61;98404.25;4162795;28;20657;-82
2023/05/09 00:59:29;;;;;;;22.33;19.07;;;;;;;15.26;99.24;98403.53;4172585;28;20667;-82
2023/05/09 01:01:32;;;;;;;23.63;19.90;;;;;;;15.23;98.95;98398.53;4167823;28;20638;-83
2023/05/09 01:03:35;;;;;;;21.50;19.03;;;;;;;15.22;98.56;98395.06;4163840;28;20699;-82
2023/05/09 01:05:44;;;;;;;22.47;19.90;;;;;;;15.21;99.46;98388.13;4174221;28;20665;-82
2023/05/09 01:07:54;;;;;;;22.00;19.73;;;;;;;15.18;99.09;98391.03;4167092;28;20623;-83
2023/05/09 01:10:03;;;;;;;23.40;20.90;;;;;;;15.18;99.11;98384.94;4172411;28;20636;-82
2023/05/09 01:12:12;;;;;;;22.03;19.73;;;;;;;15.18;100.00;98395.44;4155389;28;20639;-83
2023/05/09 01:14:21;;;;;;;31.63;20.20;;;;;;;15.15;98.56;98387.78;4154879;28;20644;-82
2023/05/09 01:16:31;;;;;;;22.27;19.97;;;;;;;15.14;98.10;98391.38;4159632;28;20705;-82
2023/05/09 01:18:38;;;;;;;22.10;19.70;;;;;;;15.09;97.99;98390.91;4171594;28;20656;-82
2023/05/09 01:20:44;;;;;;;22.20;19.90;;;;;;;15.06;98.45;98388.53;4154894;28;20640;-82
2023/05/09 01:22:54;;;;;;;28.30;19.20;;;;;;;15.04;99.31;98387.00;4178250;28;20649;-82
2023/05/09 01:25:29;;;;;;;21.87;19.20;;;;;;;15.01;99.48;98384.63;4165496;28;20635;-82
2023/05/09 01:27:43;;;;;;;27.13;22.47;;;;;;;14.97;98.75;98381.38;4174542;28;20637;-81
2023/05/09 01:29:48;;;;;;;21.70;19.37;;;;;;;14.96;99.44;98382.38;4169773;28;21135;-82
2023/05/09 01:31:52;;;;;;;22.80;20.40;;;;;;;14.96;97.82;98389.41;4166103;28;20633;-82
2023/05/09 01:33:58;;;;;;;22.33;20.00;;;;;;;14.94;97.96;98386.88;4170723;28;20636;-82
2023/05/09 01:36:05;;;;;;;22.83;19.20;;;;;;;14.92;98.49;98382.75;4155262;28;20644;-82
2023/05/09 01:38:12;;;;;;;21.63;19.40;;;;;;;14.89;97.91;98383.81;4166322;28;20713;-82
2023/05/09 01:40:19;;;;;;;26.33;20.93;;;;;;;14.88;97.93;98387.38;4174518;28;20738;-81
2023/05/09 01:42:22;;;;;;;22.33;19.90;;;;;;;14.89;99.71;98389.06;4185559;28;20629;-82
2023/05/09 01:44:26;;;;;;;21.63;19.33;;;;;;;14.90;98.75;98396.00;4169215;28;21316;-82
2023/05/09 01:46:31;;;;;;;22.10;19.70;;;;;;;14.88;98.03;98397.88;4166350;28;20646;-82
2023/05/09 01:48:35;;;;;;;20.30;18.10;;;;;;;14.86;99.57;98384.06;4165140;28;20807;-82
2023/05/09 01:50:40;;;;;;;21.23;18.93;;;;;;;14.83;97.87;98384.31;4172219;28;21052;-82
2023/05/09 01:52:43;;;;;;;22.03;19.70;;;;;;;14.82;99.47;98381.81;4169076;28;20693;-82
2023/05/09 01:54:46;;;;;;;24.30;20.47;;;;;;;14.83;98.52;98386.09;4168154;28;20654;-82
2023/05/09 01:56:50;;;;;;;23.70;20.93;;;;;;;14.79;98.34;98382.03;4171427;28;20632;-82
2023/05/09 01:58:54;;;;;;;22.77;19.40;;;;;;;14.76;100.00;98385.78;4166192;28;20648;-83
2023/05/09 02:00:57;;;;;;;23.07;19.80;;;;;;;14.78;98.67;98377.78;4170185;28;20639;-82
2023/05/09 02:03:02;;;;;;;21.70;19.37;;;;;;;14.76;98.59;98383.16;4168323;28;20647;-82
2023/05/09 02:05:06;;;;;;;23.23;20.70;;;;;;;14.74;98.55;98384.22;4166548;28;20711;-82
2023/05/09 02:07:11;;;;;;;24.13;20.37;;;;;;;14.72;100.00;98381.72;4170134;28;21050;-82
2023/05/09 02:09:14;;;;;;;23.67;19.10;;;;;;;14.72;99.25;98376.47;4154484;28;20641;-82
2023/05/09 02:11:17;;;;;;;21.87;19.57;;;;;;;14.73;99.37;98383.41;4155041;28;20651;-82
2023/05/09 02:13:20;;;;;;;22.70;19.50;;;;;;;14.72;98.49;98379.09;4167955;28;20626;-82
2023/05/09 02:15:24;;;;;;;23.60;20.07;;;;;;;14.71;99.55;98373.97;4160145;28;25129;-82
2023/05/09 02:17:29;;;;;;;21.57;19.27;;;;;;;14.69;99.47;98376.72;4155072;28;20628;-82
2023/05/09 02:19:35;;;;;;;22.03;19.17;;;;;;;14.66;98.99;98373.50;4167988;28;20666;-82
2023/05/09 02:21:38;;;;;;;23.53;18.90;;;;;;;14.62;98.66;98372.06;4169417;28;20718;-82
2023/05/09 02:23:41;;;;;;;20.70;18.50;;;;;;;14.58;97.83;98373.25;4148329;28;20747;-82
2023/05/09 02:25:45;;;;;;;20.60;16.83;;;;;;;14.55;98.22;98372.69;4152000;28;20640;-82
2023/05/09 02:27:48;;;;;;;22.30;18.20;;;;;;;14.52;97.18;98360.63;4150695;28;21274;-82
2023/05/09 02:29:56;;;;;;;21.90;19.60;;;;;;;14.51;97.92;98363.38;4149273;28;20640;-82
2023/05/09 02:32:00;;;;;;;20.17;18.00;;;;;;;14.51;97.00;98371.25;4170520;28;20636;-82
2023/05/09 02:34:04;;;;;;;21.77;19.47;;;;;;;14.48;98.18;98363.59;4166222;28;20672;-82
2023/05/09 02:36:12;;;;;;;25.27;19.70;;;;;;;14.49;99.08;98370.53;4156405;28;20644;-82
2023/05/09 02:38:15;;;;;;;24.30;20.17;;;;;;;14.48;99.35;98368.84;4154187;28;20659;-82
2023/05/09 02:40:19;;;;;;;23.73;19.60;;;;;;;14.46;98.30;98368.16;4160357;28;20678;-82
2023/05/09 02:42:24;;;;;;;24.83;18.27;;;;;;;14.47;99.13;98364.59;4167315;28;20688;-82
2023/05/09 02:44:27;;;;;;;21.20;19.00;;;;;;;14.48;99.91;98366.22;4169023;28;20659;-82
2023/05/09 02:46:30;;;;;;;26.50;19.83;;;;;;;14.43;99.55;98371.84;4154462;28;20738;-82
2023/05/09 02:48:34;;;;;;;21.60;18.70;;;;;;;14.43;99.27;98376.28;4152661;28;20684;-82
2023/05/09 02:50:38;;;;;;;24.63;20.33;;;;;;;14.40;100.00;98372.13;4166787;28;20628;-82
2023/05/09 02:52:42;;;;;;;20.77;18.57;;;;;;;14.39;100.00;98362.56;4171308;28;20650;-82
2023/05/09 02:54:46;;;;;;;20.53;18.33;;;;;;;14.38;99.17;98367.94;4169259;28;20643;-82
2023/05/09 02:56:50;;;;;;;21.60;17.63;;;;;;;14.37;98.71;98371.50;4176834;28;20639;-82
2023/05/09 02:58:53;;;;;;;22.50;18.67;;;;;;;14.34;99.02;98363.88;4165416;28;21311;-82
2023/05/09 03:00:56;;;;;;;25.23;19.70;;;;;;;14.34;99.41;98350.75;4151209;28;21155;-83
2023/05/09 03:02:59;;;;;;;21.30;19.10;;;;;;;14.34;99.28;98364.72;4165264;28;21153;-82
2023/05/09 03:05:03;;;;;;;21.57;17.50;;;;;;;14.31;98.90;98357.09;4166721;28;20671;-82
2023/05/09 03:07:07;;;;;;;20.97;18.73;;;;;;;14.28;99.38;98344.22;4154050;28;20655;-82
2023/05/09 03:09:14;;;;;;;22.23;19.10;;;;;;;14.24;99.79;98348.03;4152317;28;20724;-82
2023/05/09 03:11:17;;;;;;;24.40;19.33;;;;;;;14.24;99.33;98349.84;4167160;28;21545;-82
2023/05/09 03:13:22;;;;;;;20.47;18.33;;;;;;;14.25;100.00;98354.09;4166272;28;20639;-82
2023/05/09 03:15:26;;;;;;;25.20;21.40;;;;;;;14.28;100.00;98343.38;4149346;28;20641;-82
2023/05/09 03:17:29;;;;;;;23.30;19.27;;;;;;;14.29;100.00;98339.81;4168795;28;20640;-82
2023/05/09 03:19:32;;;;;;;21.40;18.27;;;;;;;14.28;99.36;98344.22;4172447;28;20656;-82
2023/05/09 03:21:35;;;;;;;20.27;18.17;;;;;;;14.26;99.84;98340.03;4148741;28;20636;-82
2023/05/09 03:23:39;;;;;;;20.90;17.90;;;;;;;14.25;99.83;98338.34;4154551;28;20738;-83
2023/05/09 03:25:43;;;;;;;21.93;19.73;;;;;;;14.24;100.00;98345.41;4175602;28;20660;-83
2023/05/09 03:27:46;;;;;;;21.20;18.90;;;;;;;14.26;99.34;98338.25;4161036;28;20639;-83
2023/05/09 03:29:50;;;;;;;23.83;19.50;;;;;;;14.27;99.59;98344.34;4169583;28;20693;-83
2023/05/09 03:31:55;;;;;;;19.90;17.80;;;;;;;14.25;99.73;98338.34;4167355;28;20734;-83
2023/05/09 03:33:58;;;;;;;25.40;20.40;;;;;;;14.25;100.00;98338.34;4174136;28;20652;-83
2023/05/09 03:36:01;;;;;;;23.40;18.73;;;;;;;14.26;100.00;98340.88;4169502;28;20638;-83
2023/05/09 03:38:04;;;;;;;20.53;17.60;;;;;;;14.27;99.71;98332.03;4165090;28;20639;-83
2023/05/09 03:40:08;;;;;;;24.50;19.27;;;;;;;14.28;100.00;98327.63;4189471;28;20657;-83
2023/05/09 03:42:21;;;;;;;21.67;19.17;;;;;;;14.27;100.00;98320.72;4148178;28;21055;-83
2023/05/09 03:44:26;;;;;;;21.47;18.90;;;;;;;14.29;100.00;98326.69;4151701;28;20643;-83
2023/05/09 03:46:29;;;;;;;24.20;19.80;;;;;;;14.32;100.00;98326.44;4160278;28;20644;-83
2023/05/09 03:48:32;;;;;;;23.77;19.07;;;;;;;14.32;100.00;98331.69;4151623;28;21323;-83
2023/05/09 03:50:35;;;;;;;23.57;19.07;;;;;;;14.36;99.79;98328.69;4168388;28;20635;-83
2023/05/09 03:52:38;;;;;;;20.13;17.93;;;;;;;14.39;99.61;98325.00;4171764;28;20625;-83
2023/05/09 03:54:41;;;;;;;21.10;18.77;;;;;;;14.38;100.00;98321.53;4170375;28;20631;-83
2023/05/09 03:56:45;;;;;;;22.83;18.43;;;;;;;14.39;99.39;98325.00;4172643;28;20646;-83
2023/05/09 03:58:50;;;;;;;19.13;17.07;;;;;;;14.37;99.34;98313.78;4175265;28;20618;-83
2023/05/09 04:00:53;;;;;;;19.03;16.87;;;;;;;14.36;99.03;98315.56;4169874;28;20646;-83
2023/05/09 04:02:58;;;;;;;18.87;16.97;;;;;;;14.35;99.73;98313.91;4156362;28;20786;-82
2023/05/09 04:05:09;;;;;;;19.93;17.83;;;;;;;14.36;100.00;98315.56;4155143;28;20693;-83
2023/05/09 04:07:13;;;;;;;20.70;18.23;;;;;;;14.39;98.90;98319.75;4173029;28;20667;-83
2023/05/09 04:09:16;;;;;;;21.83;18.60;;;;;;;14.41;100.00;98323.09;4148383;28;20634;-83
2023/05/09 04:11:21;;;;;;;22.83;18.63;;;;;;;14.41;99.02;98330.94;4164937;28;21096;-83
2023/05/09 04:13:25;;;;;;;22.77;18.77;;;;;;;14.40;98.94;98322.25;4171509;28;20669;-83
2023/05/09 04:15:30;;;;;;;21.73;18.70;;;;;;;14.40;100.00;98331.91;4165387;28;20644;-83
2023/05/09 04:17:33;;;;;;;25.47;18.93;;;;;;;14.38;99.08;98328.56;4150817;28;20644;-83
2023/05/09 04:19:36;;;;;;;23.63;19.53;;;;;;;14.41;99.79;98331.78;4173429;28;21047;-83
2023/05/09 04:21:39;;;;;;;23.23;18.97;;;;;;;14.40;99.46;98335.38;4172568;28;20717;-82
2023/05/09 04:23:43;;;;;;;21.50;18.80;;;;;;;14.41;100.00;98334.41;4173298;28;21082;-83
2023/05/09 04:25:50;;;;;;;22.50;20.10;;;;;;;14.43;99.50;98329.84;4160278;28;20635;-83
2023/05/09 04:27:53;;;;;;;22.77;19.27;;;;;;;14.45;100.00;98333.22;4172920;28;21212;-83
2023/05/09 04:29:56;;;;;;;23.33;19.43;;;;;;;14.47;100.00;98336.53;4171206;28;20672;-83
2023/05/09 04:32:03;;;;;;;23.73;19.73;;;;;;;14.50;100.00;98338.09;4157128;28;20746;-82
2023/05/09 04:34:06;;;;;;;21.43;19.13;;;;;;;14.52;100.00;98338.81;4170958;28;20641;-83
2023/05/09 04:36:12;;;;;;;22.67;20.20;;;;;;;14.56;100.00;98337.59;4173651;28;20622;-83
2023/05/09 04:38:15;;;;;;;22.47;19.80;;;;;;;14.58;100.00;98339.13;4166517;28;20648;-83
2023/05/09 04:40:19;;;;;;;23.63;18.83;;;;;;;14.61;100.00;98331.00;4173372;28;20655;-83
2023/05/09 04:42:32;;;;;;;25.70;19.03;;;;;;;14.64;100.00;98333.38;4158836;28;20687;-83
2023/05/09 04:44:35;;;;;;;23.50;19.33;;;;;;;14.67;100.00;98335.75;4170690;28;20639;-83
2023/05/09 04:46:39;;;;;;;21.73;18.53;;;;;;;14.69;100.00;98345.19;4156393;28;21067;-83
2023/05/09 04:48:43;;;;;;;21.87;19.43;;;;;;;14.72;100.00;98337.06;4171930;28;20667;-82
2023/05/09 04:50:47;;;;;;;23.07;20.60;;;;;;;14.74;100.00;98348.28;4171168;28;20645;-81
2023/05/09 04:52:50;;;;;;;20.90;18.60;;;;;;;14.76;100.00;98353.41;4165379;28;20624;-82
2023/05/09 04:54:54;;;;;;;22.20;19.10;;;;;;;14.79;100.00;98340.88;4149841;28;20640;-81
2023/05/09 04:57:00;;;;;;;22.10;19.60;;;;;;;14.82;100.00;98352.91;4165564;28;20646;-81
2023/05/09 04:59:19;;;;;;;24.23;20.57;;;;;;;14.81;100.00;98353.91;4151032;28;20644;-81
2023/05/09 05:01:22;;;;;;;21.47;19.27;;;;;;;14.84;100.00;98349.22;4166066;28;20682;-81
2023/05/09 05:03:26;;;;;;;22.77;19.90;;;;;;;14.87;100.00;98351.59;4163084;28;21196;-81
2023/05/09 05:05:31;;;;;;;23.73;19.87;;;;;;;14.89;100.00;98347.03;4168441;28;21080;-81
2023/05/09 05:07:39;;;;;;;24.03;20.63;;;;;;;14.94;100.00;98347.50;4165733;28;20639;-79
2023/05/09 05:09:42;;;;;;;22.17;19.37;;;;;;;14.98;100.00;98350.72;4185335;28;20624;-79
2023/05/09 05:11:46;;;;;;;23.13;20.33;;;;;;;15.06;100.00;98359.63;4174154;28;20639;-79
2023/05/09 05:14:03;;;;;;;22.63;19.87;;;;;;;15.11;100.00;98354.84;4172104;28;20650;-80
2023/05/09 05:16:06;;;;;;;23.23;19.90;;;;;;;15.18;100.00;98354.25;4172959;28;21073;-80
2023/05/09 05:18:09;;;;;;;24.73;20.10;;;;;;;15.24;100.00;98355.53;4154783;28;20724;-80
2023/05/09 05:20:13;;;;;;;23.27;20.77;;;;;;;15.30;100.00;98357.66;4166738;28;20659;-80
2023/05/09 05:22:21;;;;;;;21.87;19.47;;;;;;;15.35;99.35;98358.94;4170505;28;21095;-80
2023/05/09 05:24:24;;;;;;;22.57;19.40;;;;;;;15.40;99.57;98358.56;4156921;28;20640;-80
2023/05/09 05:26:28;;;;;;;21.40;19.10;;;;;;;15.38;100.00;98350.81;4167552;28;20639;-80
2023/05/09 05:28:32;;;;;;;25.50;19.47;;;;;;;15.42;100.00;98357.44;4173954;28;21159;-80
2023/05/09 05:30:35;;;;;;;22.87;19.97;;;;;;;15.47;100.00;98362.31;4170243;28;20633;-80
2023/05/09 05:32:38;;;;;;;25.57;20.97;;;;;;;15.50;100.00;98356.81;4171789;28;20648;-80
2023/05/09 05:34:42;;;;;;;28.43;19.87;;;;;;;15.52;100.00;98352.28;4175109;28;21263;-80
2023/05/09 05:36:46;;;;;;;22.90;20.53;;;;;;;15.50;100.00;98359.44;4154229;28;20639;-80
2023/05/09 05:38:51;;;;;;;24.90;20.97;;;;;;;15.55;98.44;98353.69;4175203;28;20644;-80
2023/05/09 05:40:54;;;;;;;25.50;21.03;;;;;;;15.61;99.54;98349.72;4163560;28;20654;-80
2023/05/09 05:42:59;;;;;;;22.57;19.80;;;;;;;15.67;98.56;98347.38;4162937;28;20775;-80
2023/05/09 05:45:04;;;;;;;23.37;20.87;;;;;;;15.71;100.00;98346.16;4172093;28;20716;-80
2023/05/09 05:47:09;;;;;;;27.17;21.20;;;;;;;15.77;100.00;98345.66;4171173;28;20633;-80
2023/05/09 05:49:13;;;;;;;26.17;21.30;;;;;;;15.86;100.00;98347.50;4165026;28;20669;-80
2023/05/09 05:51:16;;;;;;;28.43;22.53;;;;;;;15.94;100.00;98344.22;4167107;28;21273;-80
2023/05/09 05:53:19;;;;;;;23.80;20.53;;;;;;;16.00;100.00;98344.53;4166808;28;20691;-81
2023/05/09 05:55:26;;;;;;;22.60;20.20;;;;;;;16.06;100.00;98344.81;4152610;28;25382;-81
2023/05/09 05:57:29;;;;;;;29.63;21.30;;;;;;;16.12;100.00;98336.41;4154833;28;20672;-81
2023/05/09 05:59:32;;;;;;;25.07;21.63;;;;;;;16.20;100.00;98341.00;4165817;28;20639;-81
2023/05/09 06:01:36;;;;;;;25.07;21.57;;;;;;;16.27;100.00;98336.91;4164353;28;20663;-81
2023/05/09 06:03:39;;;;;;;23.50;20.70;;;;;;;16.33;100.00;98334.56;4168180;28;20653;-81
2023/05/09 06:05:43;;;;;;;28.70;20.43;;;;;;;16.42;100.00;98338.19;4156251;28;21533;-81
2023/05/09 06:07:47;;;;;;;27.50;23.07;;;;;;;16.54;100.00;98337.97;4179819;28;20629;-81
2023/05/09 06:09:50;;;;;;;28.83;23.23;;;;;;;16.64;100.00;98330.88;4148838;28;20715;-81
2023/05/09 06:11:54;;;;;;;26.30;22.33;;;;;;;16.73;98.97;98325.66;4135946;28;20636;-81
2023/05/09 06:13:57;;;;;;;28.13;22.80;;;;;;;16.82;97.80;98324.81;4160255;28;20632;-81
2023/05/09 06:16:02;;;;;;;27.40;22.10;;;;;;;16.94;97.12;98325.53;4158445;28;20732;-81
2023/05/09 06:18:20;;;;;;;29.33;23.70;;;;;;;17.01;94.59;98323.03;4171772;28;20646;-81
2023/05/09 06:20:23;;;;;;;29.63;24.53;;;;;;;17.15;94.26;98329.69;4168382;28;20639;-81
2023/05/09 06:22:26;;;;;;;34.40;25.67;;;;;;;17.24;92.65;98315.69;4165682;28;20728;-81
2023/05/09 06:24:29;;;;;;;29.40;24.97;;;;;;;17.34;92.06;98306.81;4146887;28;21267;-81
2023/05/09 06:26:38;;;;;;;28.10;24.50;;;;;;;17.48;91.43;98309.00;4171814;28;20641;-81
2023/05/09 06:28:43;;;;;;;31.83;24.00;;;;;;;17.57;90.43;98311.59;4171400;28;20744;-81
2023/05/09 06:30:46;;;;;;;27.53;23.20;;;;;;;17.63;88.36;98316.31;4166103;28;20664;-81
2023/05/09 06:32:49;;;;;;;29.63;24.07;;;;;;;17.69;87.14;98307.84;4166888;28;20619;-83
2023/05/09 06:34:53;;;;;;;28.77;24.10;;;;;;;17.74;86.44;98297.69;4165700;28;20638;-84
2023/05/09 06:36:56;;;;;;;25.50;21.60;;;;;;;17.85;86.54;98309.91;4160152;28;20658;-82
2023/05/09 06:38:59;;;;;;;28.20;22.43;;;;;;;18.09;86.42;98306.59;4154581;28;20636;-82
2023/05/09 06:41:02;;;;;;;29.57;23.90;;;;;;;18.31;84.99;98306.25;4167645;28;20724;-82
2023/05/09 06:43:05;;;;;;;28.17;23.13;;;;;;;18.55;84.24;98310.00;4163661;28;21095;-82
2023/05/09 06:45:11;;;;;;;30.40;23.40;;;;;;;19.11;83.02;98308.78;4157238;28;20652;-82
2023/05/09 06:47:14;;;;;;;30.10;23.73;;;;;;;19.47;81.27;98308.59;4149947;28;20667;-83
2023/05/09 06:49:17;;;;;;;28.07;24.60;;;;;;;19.88;79.95;98310.56;4152712;28;20647;-83
2023/05/09 06:51:20;;;;;;;29.53;23.77;;;;;;;20.22;76.83;98306.94;4166349;28;20626;-83
2023/05/09 06:53:23;;;;;;;30.07;23.73;;;;;;;20.49;79.30;98304.88;4166455;28;22034;-85
2023/05/09 06:55:27;;;;;;;27.07;22.83;;;;;;;20.84;78.64;98304.69;4154171;28;20639;-85
2023/05/09 06:57:30;;;;;;;26.27;22.87;;;;;;;21.06;76.29;98307.50;4164864;28;20694;-86
2023/05/09 06:59:33;;;;;;;26.40;23.13;;;;;;;21.19;75.10;98302.56;4162756;28;20630;-85
2023/05/09 07:01:37;;;;;;;27.13;23.27;;;;;;;21.39;75.63;98310.06;4144998;28;20649;-86
2023/05/09 07:03:41;;;;;;;26.27;22.80;;;;;;;21.62;75.78;98305.75;4168585;28;20621;-85
2023/05/09 07:05:44;;;;;;;26.43;23.07;;;;;;;21.76;76.41;98311.19;4168371;28;20727;-85
2023/05/09 07:07:48;;;;;;;25.40;22.23;;;;;;;21.91;73.53;98301.53;4167807;28;21072;-86
2023/05/09 07:09:51;;;;;;;26.13;22.47;;;;;;;22.13;72.47;98295.50;4171514;28;20632;-86
2023/05/09 07:12:03;;;;;;;26.17;22.00;;;;;;;22.34;71.12;98293.13;4168675;28;20613;-86
2023/05/09 07:14:06;;;;;;;26.63;23.30;;;;;;;22.54;71.59;98294.38;4161812;28;20633;-85
2023/05/09 07:16:09;;;;;;;23.40;20.90;;;;;;;22.71;69.68;98290.63;4166678;28;21290;-86
2023/05/09 07:18:14;;;;;;;24.23;21.00;;;;;;;22.90;69.95;98286.50;4172851;28;20657;-86
2023/05/09 07:20:17;;;;;;;24.47;21.87;;;;;;;23.05;68.23;98284.78;4144403;28;20645;-86
2023/05/09 07:22:20;;;;;;;25.87;21.20;;;;;;;23.21;67.31;98285.50;4167136;28;20655;-86
2023/05/09 07:24:23;;;;;;;25.80;21.93;;;;;;;23.31;67.97;98285.25;4176791;28;20664;-86
2023/05/09 07:26:27;;;;;;;23.93;20.97;;;;;;;23.38;66.27;98286.19;4161356;28;21063;-86
2023/05/09 07:28:30;;;;;;;23.63;21.00;;;;;;;23.19;68.79;98285.84;4165186;28;20697;-86
2023/05/09 07:30:33;;;;;;;21.40;19.07;;;;;;;22.83;68.13;98282.06;4168974;28;21349;-86
2023/05/09 07:32:36;;;;;;;24.20;21.60;;;;;;;22.51;70.61;98268.13;4172658;28;20641;-86
2023/05/09 07:34:41;;;;;;;23.63;20.97;;;;;;;22.25;70.01;98276.38;4149949;28;20640;-86
2023/05/09 07:36:44;;;;;;;23.77;21.37;;;;;;;22.08;70.73;98265.94;4172592;28;20718;-86
2023/05/09 07:38:49;;;;;;;23.80;21.30;;;;;;;21.96;71.86;98264.66;4155262;28;21288;-86
2023/05/09 07:40:52;;;;;;;21.23;18.93;;;;;;;21.92;71.61;98244.75;4170192;28;20636;-86
2023/05/09 07:42:55;;;;;;;23.13;20.63;;;;;;;21.95;70.89;98248.88;4177840;28;20680;-86
2023/05/09 07:44:59;;;;;;;27.23;21.77;;;;;;;21.85;72.75;98237.63;4175177;28;20645;-86
2023/05/09 07:47:04;;;;;;;22.70;20.30;;;;;;;21.84;70.52;98238.63;4173815;28;20628;-86
2023/05/09 07:49:07;;;;;;;23.67;21.17;;;;;;;21.84;70.98;98223.50;4169671;28;21089;-86
2023/05/09 07:51:12;;;;;;;22.73;20.33;;;;;;;21.99;70.62;98218.31;4168524;28;20785;-86
2023/05/09 07:53:15;;;;;;;22.63;19.80;;;;;;;22.17;69.88;98224.22;4171354;28;20689;-86
2023/05/09 07:55:18;;;;;;;23.27;20.77;;;;;;;22.25;69.17;98222.38;4165178;28;20734;-86
2023/05/09 07:57:21;;;;;;;22.20;19.83;;;;;;;22.26;70.83;98213.41;4148331;28;21064;-86
2023/05/09 07:59:24;;;;;;;21.40;19.20;;;;;;;22.21;68.87;98209.63;4167079;28;20650;-86
2023/05/09 08:01:27;;;;;;;20.87;18.77;;;;;;;22.12;68.80;98200.81;4156756;28;20908;-86
2023/05/09 08:03:30;;;;;;;21.90;19.23;;;;;;;22.03;69.22;98201.03;4171240;28;20677;-86
2023/05/09 08:05:34;;;;;;;21.63;19.33;;;;;;;22.03;68.38;98191.22;4157930;28;21322;-86
2023/05/09 08:07:38;;;;;;;20.20;18.00;;;;;;;22.06;69.34;98185.56;4163983;28;21264;-86
2023/05/09 08:09:41;;;;;;;19.60;17.60;;;;;;;22.28;68.81;98190.13;4166437;28;20702;-86
2023/05/09 08:11:45;;;;;;;22.03;19.10;;;;;;;22.44;67.67;98190.88;4151994;28;20714;-85
2023/05/09 08:13:48;;;;;;;20.47;18.27;;;;;;;22.51;66.75;98181.19;4176030;28;20626;-86
2023/05/09 08:15:51;;;;;;;20.90;18.70;;;;;;;22.88;68.29;98178.59;4173132;28;20630;-86
2023/05/09 08:17:54;;;;;;;19.17;17.10;;;;;;;23.20;67.68;98181.84;4155459;28;20717;-85
2023/05/09 08:19:58;;;;;;;20.13;17.67;;;;;;;23.47;67.58;98173.22;4171561;28;20637;-86
2023/05/09 08:22:01;;;;;;;18.63;16.73;;;;;;;23.67;65.51;98175.22;4170266;28;20758;-86
2023/05/09 08:24:06;;;;;;;19.70;17.67;;;;;;;23.78;64.61;98175.56;4147367;28;21249;-84
2023/05/09 08:26:10;;;;;;;19.10;17.10;;;;;;;23.88;65.31;98178.78;4169511;28;20676;-85
2023/05/09 08:28:13;;;;;;;19.00;16.37;;;;;;;23.92;64.82;98179.22;4165840;28;20724;-84
2023/05/09 08:30:16;;;;;;;16.77;15.03;;;;;;;23.96;64.63;98167.19;4167317;28;21218;-86
2023/05/09 08:32:19;;;;;;;17.37;15.60;;;;;;;23.98;65.98;98163.34;4165115;28;20745;-86
2023/05/09 08:34:23;;;;;;;18.07;16.27;;;;;;;24.00;64.61;98163.97;4172825;28;20686;-86
2023/05/09 08:36:26;;;;;;;18.20;16.40;;;;;;;24.01;65.28;98168.31;4170219;28;20683;-86
2023/05/09 08:38:29;;;;;;;18.80;16.47;;;;;;;23.94;64.70;98153.25;4169724;28;20635;-86
2023/05/09 08:40:37;;;;;;;16.27;14.60;;;;;;;23.94;64.58;98145.25;4163630;28;20701;-86
2023/05/09 08:42:40;;;;;;;16.20;14.60;;;;;;;23.95;63.24;98158.38;4168084;28;20711;-86
2023/05/09 08:44:43;;;;;;;15.90;14.30;;;;;;;23.73;64.04;98139.84;4169655;28;20631;-86
2023/05/09 08:46:48;;;;;;;16.73;15.07;;;;;;;23.68;65.50;98142.25;4169211;28;20659;-86
2023/05/09 08:48:51;;;;;;;14.60;13.20;;;;;;;23.76;66.30;98139.47;4170943;28;20857;-85
2023/05/09 08:50:55;;;;;;;12.23;10.93;;;;;;;23.79;64.24;98131.94;4171505;28;20654;-86
2023/05/09 08:52:58;;;;;;;12.57;11.03;;;;;;;23.87;64.05;98129.16;4155791;28;20650;-85
2023/05/09 08:55:03;;;;;;;12.93;11.40;;;;;;;24.04;65.18;98129.78;4168541;28;20628;-85
2023/05/09 08:57:08;;;;;;;12.80;11.50;;;;;;;24.22;66.48;98131.84;4154600;28;21300;-86
2023/05/09 08:59:11;;;;;;;12.57;11.37;;;;;;;24.34;65.32;98122.38;4173001;28;20634;-86
2023/05/09 09:01:14;;;;;;;14.30;12.83;;;;;;;24.38;65.65;98114.81;4171607;28;20634;-86
2023/05/09 09:03:18;;;;;;;15.27;13.77;;;;;;;24.44;68.14;98112.19;4171008;28;21270;-86
2023/05/09 09:05:22;;;;;;;15.07;13.47;;;;;;;24.60;68.30;98114.63;4172046;28;20720;-86
2023/05/09 09:07:43;;;;;;;12.70;11.50;;;;;;;24.57;65.92;98108.81;4149181;28;21224;-86
2023/05/09 09:09:47;;;;;;;14.10;12.80;;;;;;;24.63;63.84;98111.59;4171592;28;20635;-86
2023/05/09 09:11:52;;;;;;;14.70;13.30;;;;;;;24.64;65.22;98102.53;4168111;28;20637;-86
2023/05/09 09:14:00;;;;;;;13.10;11.90;;;;;;;24.62;63.71;98095.75;4184430;28;21054;-86
2023/05/09 09:16:04;;;;;;;13.30;11.00;;;;;;;24.52;62.13;98098.75;4168955;28;21239;-86
2023/05/09 09:18:09;;;;;;;11.13;10.03;;;;;;;24.51;63.10;98101.63;4157588;28;20736;-86
2023/05/09 09:20:13;;;;;;;12.03;10.50;;;;;;;24.47;62.05;98098.47;4166921;28;20641;-86
2023/05/09 09:22:19;;;;;;;13.40;12.10;;;;;;;24.57;64.41;98096.34;4169775;28;20720;-86
2023/05/09 09:24:23;;;;;;;11.87;10.77;;;;;;;24.56;62.62;98088.53;4153417;28;21054;-86
2023/05/09 09:26:28;;;;;;;12.90;11.57;;;;;;;24.54;61.96;98083.38;4159007;28;20678;-86
2023/05/09 09:28:31;;;;;;;11.90;10.70;;;;;;;24.54;62.47;98080.72;4166448;28;20651;-86
2023/05/09 09:30:36;;;;;;;11.77;10.63;;;;;;;24.63;66.04;98076.03;4162313;28;20624;-86